Hlavní strana
METAR-TAF:

METAR-TAF

Letiště :

Huntsville, Alabama, Spojené státy americké

zeměpisná šířka: 34-51-41N, zeměpisná délka: 086-33-26W, výška: 230 m

Aktuální stav počasí

Zpráva byla vytvořena před 23 minutami, v 21:55 UTC
Západoseverozápadní vítr 3 kt
Teplota 17°C
Vlhkost vzduchu 63%
Tlak 1014 hPa
Viditelnost: 16.1 km
Oblačno až skoro zataženo ve výšce 3000 ft
Zataženo ve výšce 3900 ft
bouřka

METAR: KMDQ 252155Z AUTO 30003KT 10SM TS BKN030 OVC039 17/10 A2995 RMK A02 LTG DSNT ALQDS T01750101

Čas: 17:18 (22:18 UTC)


TAF: chybějící

Stav a předpovědi počasí z více než 4 000 letišť (zprávy METAR a TAF).

Červené a žluté tečky na mapě představují dostupné meteorologické stanice.

Když kurzor umístíte na tečku, zobrazí se název stanice.

Pak kliknutím zobrazíte stav a předpověď počasí.

Chcete-li změnit mapu, kliknutím na zelené tlačítko se znaménkem +mapu přiblížíte, kliknutím na zelené tlačítko se znaménkem – mapu oddálíte a kliknutím na zelené šipky přejdete na sousední mapy.


METAR-TAF: